Time;durP1;ratioP1;P1;durP2;ratioP2;P2;SDS_P1;SDS_P2;PMS_P1;PMS_P2;Temp;Humidity;BMP_temperature;BMP_pressure;BME280_temperature;BME280_humidity;BME280_pressure;Samples;Min_cycle;Max_cycle;Signal;HPM_P1;HPM_P2
2022/06/25 00:01:14;;;;;;;10.35;9.23;;;;;;;;;;4975067;28;20030;-76
2022/06/25 00:03:39;;;;;;;10.68;9.25;;;;;;;;;;4968426;28;20487;-76
2022/06/25 00:06:05;;;;;;;10.98;9.85;;;;;;;;;;4972060;28;20058;-75
2022/06/25 00:08:30;;;;;;;12.13;8.77;;;;;;;;;;4954186;28;20117;-76
2022/06/25 00:10:56;;;;;;;15.10;9.70;;;;;;;;;;4963721;28;20394;-75
2022/06/25 00:13:21;;;;;;;12.15;8.90;;;;;;;;;;4997525;28;21556;-75
2022/06/25 00:15:46;;;;;;;10.00;9.00;;;;;;;;;;4987848;28;20402;-75
2022/06/25 00:18:12;;;;;;;9.68;8.65;;;;;;;;;;4951179;28;20062;-74
2022/06/25 00:20:37;;;;;;;13.70;9.25;;;;;;;;;;4974850;28;20033;-74
2022/06/25 00:23:03;;;;;;;10.10;9.05;;;;;;;;;;4954212;28;20390;-75
2022/06/25 00:25:28;;;;;;;9.55;8.65;;;;;;;;;;5003424;28;20026;-73
2022/06/25 00:27:54;;;;;;;9.80;8.15;;;;;;;;;;4974348;28;20510;-74
2022/06/25 00:30:19;;;;;;;8.88;7.97;;;;;;;;;;4990678;28;20100;-76
2022/06/25 00:32:44;;;;;;;9.95;9.02;;;;;;;;;;5005536;28;20072;-76
2022/06/25 00:35:10;;;;;;;11.07;9.85;;;;;;;;;;4971146;28;20069;-74
2022/06/25 00:37:35;;;;;;;10.23;9.10;;;;;;;;;;5004148;28;20036;-75
2022/06/25 00:40:01;;;;;;;10.10;9.05;;;;;;;;;;4954345;28;20042;-73
2022/06/25 00:42:26;;;;;;;11.15;9.52;;;;;;;;;;4956408;28;20434;-74
2022/06/25 00:44:55;;;;;;;11.25;9.13;;;;;;;;;;4989899;28;20034;-75
2022/06/25 00:47:21;;;;;;;17.38;9.68;;;;;;;;;;5007056;28;20034;-74
2022/06/25 00:49:46;;;;;;;10.23;9.07;;;;;;;;;;4990360;28;20488;-74
2022/06/25 00:52:19;;;;;;;10.32;9.18;;;;;;;;;;4986075;28;20073;-74
2022/06/25 00:54:50;;;;;;;10.18;9.02;;;;;;;;;;4974962;28;20037;-76
2022/06/25 00:57:20;;;;;;;10.75;9.70;;;;;;;;;;4955912;28;20379;-76
2022/06/25 00:59:49;;;;;;;10.88;8.75;;;;;;;;;;4978109;28;20034;-75
2022/06/25 01:02:14;;;;;;;10.77;9.48;;;;;;;;;;4973036;28;20026;-75
2022/06/25 01:04:40;;;;;;;11.45;9.05;;;;;;;;;;4955038;28;20537;-74
2022/06/25 01:07:06;;;;;;;11.25;10.15;;;;;;;;;;4969060;28;20132;-76
2022/06/25 01:09:32;;;;;;;11.02;9.82;;;;;;;;;;4970001;28;20053;-75
2022/06/25 01:11:57;;;;;;;13.25;9.40;;;;;;;;;;4973249;28;20128;-75
2022/06/25 01:14:23;;;;;;;11.38;10.30;;;;;;;;;;5006644;28;20034;-75
2022/06/25 01:16:48;;;;;;;12.95;11.73;;;;;;;;;;4988988;28;20581;-74
2022/06/25 01:19:14;;;;;;;10.93;9.65;;;;;;;;;;4989854;28;20057;-75
2022/06/25 01:21:41;;;;;;;11.50;10.43;;;;;;;;;;5006139;28;20541;-75
2022/06/25 01:24:07;;;;;;;12.63;11.38;;;;;;;;;;4985166;28;20494;-75
2022/06/25 01:26:36;;;;;;;12.82;11.38;;;;;;;;;;4989115;28;20049;-75
2022/06/25 01:29:02;;;;;;;12.55;10.45;;;;;;;;;;4977004;28;20030;-76
2022/06/25 01:31:27;;;;;;;12.52;11.30;;;;;;;;;;4989223;28;21779;-74
2022/06/25 01:33:53;;;;;;;11.80;10.65;;;;;;;;;;4972946;28;20084;-74
2022/06/25 01:36:19;;;;;;;10.43;9.35;;;;;;;;;;4965080;28;22759;-75
2022/06/25 01:38:44;;;;;;;10.90;9.88;;;;;;;;;;5007122;28;20052;-75
2022/06/25 01:41:10;;;;;;;11.07;9.93;;;;;;;;;;4978167;28;20034;-75
2022/06/25 01:43:35;;;;;;;12.60;11.05;;;;;;;;;;4971928;28;20409;-75
2022/06/25 01:46:00;;;;;;;12.23;10.15;;;;;;;;;;4985634;28;20072;-75
2022/06/25 01:48:26;;;;;;;13.90;10.95;;;;;;;;;;4965494;28;20034;-76
2022/06/25 01:50:51;;;;;;;15.73;11.55;;;;;;;;;;4989548;28;20076;-75
2022/06/25 01:53:16;;;;;;;12.85;11.45;;;;;;;;;;4988383;28;20509;-75
2022/06/25 01:55:42;;;;;;;11.70;10.55;;;;;;;;;;4989233;28;20054;-75
2022/06/25 01:58:07;;;;;;;11.48;10.30;;;;;;;;;;4989007;28;20042;-74
2022/06/25 02:00:32;;;;;;;12.98;10.90;;;;;;;;;;4988914;28;20101;-74
2022/06/25 02:02:58;;;;;;;13.18;10.32;;;;;;;;;;4972946;28;20038;-74
2022/06/25 02:08:09;;;;;;;11.32;10.23;;;;;;;;;;5004974;28;20024;-76
2022/06/25 02:10:34;;;;;;;12.73;11.20;;;;;;;;;;4973059;28;20038;-75
2022/06/25 02:13:00;;;;;;;13.00;10.32;;;;;;;;;;4972529;28;20092;-75
2022/06/25 02:15:25;;;;;;;12.02;10.73;;;;;;;;;;5005648;28;20084;-75
2022/06/25 02:17:50;;;;;;;11.63;9.95;;;;;;;;;;4988170;28;20505;-75
2022/06/25 02:20:16;;;;;;;11.38;9.48;;;;;;;;;;4989148;28;22041;-75
2022/06/25 02:22:41;;;;;;;13.25;10.77;;;;;;;;;;5005462;28;20108;-75
2022/06/25 02:25:07;;;;;;;13.55;10.38;;;;;;;;;;4988680;28;20044;-75
2022/06/25 02:27:33;;;;;;;13.13;10.70;;;;;;;;;;5004592;28;20026;-75
2022/06/25 02:29:59;;;;;;;11.77;10.60;;;;;;;;;;4988386;28;20049;-75
2022/06/25 02:32:24;;;;;;;13.73;10.43;;;;;;;;;;4986694;28;20649;-75
2022/06/25 02:34:49;;;;;;;10.68;9.57;;;;;;;;;;4988742;28;20073;-74
2022/06/25 02:37:16;;;;;;;11.23;10.10;;;;;;;;;;5004442;28;20053;-74
2022/06/25 02:39:41;;;;;;;9.95;8.95;;;;;;;;;;4988625;28;20026;-75
2022/06/25 02:42:06;;;;;;;11.68;9.60;;;;;;;;;;4987270;28;20109;-76
2022/06/25 02:44:32;;;;;;;13.90;10.20;;;;;;;;;;4987933;28;20177;-75
2022/06/25 02:46:57;;;;;;;11.63;10.35;;;;;;;;;;4987865;28;20101;-75
2022/06/25 02:49:22;;;;;;;10.82;9.23;;;;;;;;;;4987660;28;20053;-74
2022/06/25 02:51:48;;;;;;;10.88;9.77;;;;;;;;;;5004281;28;20479;-74
2022/06/25 02:54:13;;;;;;;12.40;10.30;;;;;;;;;;4980416;28;20117;-75
2022/06/25 02:59:22;;;;;;;14.43;10.35;;;;;;;;;;5005462;28;20076;-75
2022/06/25 03:01:48;;;;;;;13.20;9.02;;;;;;;;;;4953481;28;22596;-74
2022/06/25 03:04:13;;;;;;;12.15;9.30;;;;;;;;;;4968476;28;20054;-75
2022/06/25 03:06:39;;;;;;;10.52;9.38;;;;;;;;;;4992313;28;20117;-75
2022/06/25 03:09:05;;;;;;;11.57;9.82;;;;;;;;;;4987912;28;20030;-74
2022/06/25 03:11:31;;;;;;;16.50;9.80;;;;;;;;;;4977033;28;20062;-76
2022/06/25 03:13:56;;;;;;;10.90;9.05;;;;;;;;;;4967839;28;20061;-75
2022/06/25 03:16:21;;;;;;;11.07;9.90;;;;;;;;;;4984487;28;20050;-75
2022/06/25 03:18:47;;;;;;;10.50;9.38;;;;;;;;;;4955196;28;20041;-75
2022/06/25 03:21:12;;;;;;;12.73;10.00;;;;;;;;;;4987168;28;20525;-75
2022/06/25 03:23:37;;;;;;;12.30;10.30;;;;;;;;;;4987357;28;20045;-75
2022/06/25 03:26:03;;;;;;;14.45;9.68;;;;;;;;;;4973407;28;20026;-76
2022/06/25 03:28:28;;;;;;;13.68;10.23;;;;;;;;;;4980078;28;20470;-75
2022/06/25 03:30:54;;;;;;;14.57;10.13;;;;;;;;;;4966755;28;20080;-76
2022/06/25 03:33:19;;;;;;;10.20;9.27;;;;;;;;;;4936121;28;20578;-75
2022/06/25 03:35:44;;;;;;;12.85;10.77;;;;;;;;;;4976744;28;20054;-75
2022/06/25 03:38:10;;;;;;;12.85;10.75;;;;;;;;;;4999893;28;20069;-74
2022/06/25 03:40:35;;;;;;;12.95;10.02;;;;;;;;;;4983278;28;20026;-75
2022/06/25 03:43:00;;;;;;;13.40;10.32;;;;;;;;;;4951589;28;20030;-75
2022/06/25 03:45:26;;;;;;;13.40;11.30;;;;;;;;;;4967975;28;20026;-75
2022/06/25 03:47:51;;;;;;;12.02;10.13;;;;;;;;;;4970723;28;20035;-75
2022/06/25 03:50:17;;;;;;;17.02;10.38;;;;;;;;;;4961704;28;20619;-75
2022/06/25 03:52:43;;;;;;;12.68;10.68;;;;;;;;;;4978199;28;20061;-57
2022/06/25 03:55:08;;;;;;;11.90;10.70;;;;;;;;;;4985753;28;20038;-57
2022/06/25 03:57:35;;;;;;;14.10;10.77;;;;;;;;;;4996706;28;20034;-56
2022/06/25 04:00:00;;;;;;;11.45;10.25;;;;;;;;;;4980818;28;20055;-56
2022/06/25 04:02:25;;;;;;;14.85;11.35;;;;;;;;;;4967039;28;20121;-59
2022/06/25 04:04:51;;;;;;;12.93;9.88;;;;;;;;;;4985000;28;20062;-56
2022/06/25 04:07:16;;;;;;;11.45;9.63;;;;;;;;;;4983461;28;20122;-57
2022/06/25 04:09:41;;;;;;;11.65;9.18;;;;;;;;;;4985600;28;20061;-59
2022/06/25 04:12:07;;;;;;;10.95;9.80;;;;;;;;;;4985681;28;20111;-59
2022/06/25 04:14:32;;;;;;;10.65;9.20;;;;;;;;;;4989874;28;20502;-58
2022/06/25 04:16:58;;;;;;;12.38;9.85;;;;;;;;;;4985167;28;20072;-59
2022/06/25 04:19:23;;;;;;;10.00;8.98;;;;;;;;;;4985089;28;20069;-58
2022/06/25 04:21:50;;;;;;;14.13;8.85;;;;;;;;;;4985546;28;20027;-59
2022/06/25 04:24:16;;;;;;;10.75;9.52;;;;;;;;;;4993872;28;20084;-59
2022/06/25 04:26:42;;;;;;;18.83;9.35;;;;;;;;;;4986927;28;20604;-59
2022/06/25 04:29:08;;;;;;;11.32;8.82;;;;;;;;;;4984549;28;20130;-58
2022/06/25 04:31:35;;;;;;;13.32;8.65;;;;;;;;;;4999357;28;20034;-58
2022/06/25 04:34:00;;;;;;;12.73;8.43;;;;;;;;;;5004698;28;20324;-59
2022/06/25 04:36:26;;;;;;;16.10;8.85;;;;;;;;;;5005027;28;20033;-58
2022/06/25 04:38:51;;;;;;;8.85;7.95;;;;;;;;;;5004494;28;20379;-58
2022/06/25 04:41:17;;;;;;;11.02;8.25;;;;;;;;;;5005014;28;20116;-59
2022/06/25 04:43:42;;;;;;;11.73;8.40;;;;;;;;;;5004373;28;20088;-56
2022/06/25 04:46:08;;;;;;;9.00;8.10;;;;;;;;;;5004933;28;20038;-58
2022/06/25 04:48:33;;;;;;;14.32;8.65;;;;;;;;;;5003743;28;20510;-59
2022/06/25 04:50:58;;;;;;;9.35;7.45;;;;;;;;;;5004684;28;20133;-56
2022/06/25 04:53:24;;;;;;;8.68;7.35;;;;;;;;;;4984838;28;20141;-58
2022/06/25 04:55:49;;;;;;;11.02;8.07;;;;;;;;;;4985251;28;20062;-59
2022/06/25 04:58:14;;;;;;;10.60;7.78;;;;;;;;;;4984211;28;20046;-58
2022/06/25 05:00:40;;;;;;;11.85;7.30;;;;;;;;;;4984990;28;20034;-58
2022/06/25 05:03:06;;;;;;;10.32;7.05;;;;;;;;;;4994311;28;20041;-58
2022/06/25 05:05:31;;;;;;;9.90;7.30;;;;;;;;;;5000110;28;20029;-59
2022/06/25 05:07:57;;;;;;;8.00;6.90;;;;;;;;;;4997522;28;20058;-59
2022/06/25 05:10:22;;;;;;;9.32;6.80;;;;;;;;;;5000507;28;20120;-60
2022/06/25 05:15:31;;;;;;;;;;;;;;;;;;5003676;28;20044;-59
2022/06/25 05:17:56;;;;;;;8.73;6.35;;;;;;;;;;4994269;28;20922;-61
2022/06/25 05:20:22;;;;;;;8.27;6.35;;;;;;;;;;4988952;28;20529;-60
2022/06/25 05:22:47;;;;;;;9.38;6.40;;;;;;;;;;4999272;28;20169;-60
2022/06/25 05:25:13;;;;;;;9.90;6.35;;;;;;;;;;5002433;28;20077;-60
2022/06/25 05:27:38;;;;;;;12.38;6.15;;;;;;;;;;5002841;28;20613;-60
2022/06/25 05:30:05;;;;;;;12.88;5.93;;;;;;;;;;5002281;28;20191;-62
2022/06/25 05:32:30;;;;;;;10.02;6.35;;;;;;;;;;4994183;28;20117;-61
2022/06/25 05:34:57;;;;;;;8.00;5.82;;;;;;;;;;5002602;28;20109;-61
2022/06/25 05:37:26;;;;;;;10.45;5.75;;;;;;;;;;5001297;28;20379;-61
2022/06/25 05:39:51;;;;;;;8.98;5.93;;;;;;;;;;4980434;28;20037;-63
2022/06/25 05:42:17;;;;;;;8.50;6.00;;;;;;;;;;4994650;28;20065;-60
2022/06/25 05:44:43;;;;;;;9.23;5.78;;;;;;;;;;5007121;28;20029;-60
2022/06/25 05:47:09;;;;;;;10.55;5.45;;;;;;;;;;5007239;28;20504;-59
2022/06/25 05:49:34;;;;;;;6.63;5.43;;;;;;;;;;5006243;28;20109;-61
2022/06/25 05:52:00;;;;;;;10.10;6.15;;;;;;;;;;4989612;28;20046;-61
2022/06/25 05:54:25;;;;;;;10.90;5.45;;;;;;;;;;5004709;28;20401;-61
2022/06/25 05:56:50;;;;;;;9.05;5.90;;;;;;;;;;4991533;28;20036;-60
2022/06/25 05:59:20;;;;;;;7.95;4.95;;;;;;;;;;4987573;28;20068;-61
2022/06/25 06:01:46;;;;;;;11.32;5.32;;;;;;;;;;4987410;28;20037;-60
2022/06/25 06:04:11;;;;;;;8.68;4.97;;;;;;;;;;4987660;28;20049;-61
2022/06/25 06:06:36;;;;;;;8.40;4.97;;;;;;;;;;4990120;28;20057;-61
2022/06/25 06:09:02;;;;;;;7.28;4.75;;;;;;;;;;4984213;28;20463;-60
2022/06/25 06:11:27;;;;;;;7.40;4.97;;;;;;;;;;4970621;28;20089;-61
2022/06/25 06:13:53;;;;;;;11.75;4.90;;;;;;;;;;4996945;28;20479;-60
2022/06/25 06:16:18;;;;;;;6.20;4.45;;;;;;;;;;4997408;28;20057;-61
2022/06/25 06:18:43;;;;;;;7.78;4.53;;;;;;;;;;4997586;28;20497;-61
2022/06/25 06:21:09;;;;;;;7.55;4.43;;;;;;;;;;5001423;28;20538;-61
2022/06/25 06:23:34;;;;;;;8.73;4.72;;;;;;;;;;5001733;28;20058;-61
2022/06/25 06:26:00;;;;;;;9.35;4.47;;;;;;;;;;5000767;28;20060;-61
2022/06/25 06:28:25;;;;;;;7.72;3.75;;;;;;;;;;5000441;28;20486;-61
2022/06/25 06:30:51;;;;;;;8.57;3.90;;;;;;;;;;5001492;28;20053;-60
2022/06/25 06:33:17;;;;;;;9.18;3.97;;;;;;;;;;5002197;28;20074;-64
2022/06/25 06:35:42;;;;;;;9.95;3.85;;;;;;;;;;4992243;28;20532;-59
2022/06/25 06:38:08;;;;;;;4.97;3.13;;;;;;;;;;5001163;28;20026;-62
2022/06/25 06:40:33;;;;;;;7.97;3.33;;;;;;;;;;4997825;28;20072;-62
2022/06/25 06:42:59;;;;;;;5.90;3.75;;;;;;;;;;4999505;28;20438;-62
2022/06/25 06:45:25;;;;;;;3.60;2.85;;;;;;;;;;5001355;28;20049;-62
2022/06/25 06:47:50;;;;;;;6.30;3.13;;;;;;;;;;5001055;28;20029;-61
2022/06/25 06:50:15;;;;;;;6.70;2.88;;;;;;;;;;5000005;28;20450;-59
2022/06/25 06:52:41;;;;;;;6.80;3.25;;;;;;;;;;4973698;28;20045;-58
2022/06/25 06:55:06;;;;;;;6.63;3.00;;;;;;;;;;4996841;28;20126;-57
2022/06/25 06:57:32;;;;;;;9.75;3.60;;;;;;;;;;4971035;28;20387;-60
2022/06/25 06:59:58;;;;;;;5.60;3.08;;;;;;;;;;4997321;28;20100;-60
2022/06/25 07:02:25;;;;;;;6.57;2.92;;;;;;;;;;5000451;28;20390;-60
2022/06/25 07:04:52;;;;;;;5.07;3.03;;;;;;;;;;4998972;28;20033;-60
2022/06/25 07:07:17;;;;;;;6.68;3.25;;;;;;;;;;4997379;28;20121;-60
2022/06/25 07:09:42;;;;;;;6.72;2.85;;;;;;;;;;4998782;28;20418;-60
2022/06/25 07:12:08;;;;;;;4.28;2.75;;;;;;;;;;4985584;28;20070;-60
2022/06/25 07:14:33;;;;;;;8.82;3.20;;;;;;;;;;4994557;28;20050;-60
2022/06/25 07:16:58;;;;;;;8.85;3.53;;;;;;;;;;5003552;28;20057;-60
2022/06/25 07:19:24;;;;;;;8.18;3.58;;;;;;;;;;5004276;28;20501;-59
2022/06/25 07:21:49;;;;;;;6.88;3.13;;;;;;;;;;5003199;28;20054;-60
2022/06/25 07:24:14;;;;;;;6.93;2.90;;;;;;;;;;4983649;28;20129;-59
2022/06/25 07:26:40;;;;;;;5.65;2.65;;;;;;;;;;4993949;28;20061;-64
2022/06/25 07:29:05;;;;;;;5.85;2.83;;;;;;;;;;4998355;28;20044;-58
2022/06/25 07:31:30;;;;;;;7.00;3.30;;;;;;;;;;5002287;28;20064;-59
2022/06/25 07:33:56;;;;;;;5.88;3.10;;;;;;;;;;5001116;28;20643;-59
2022/06/25 07:36:21;;;;;;;6.97;2.88;;;;;;;;;;5003355;28;20057;-60
2022/06/25 07:38:47;;;;;;;5.10;2.70;;;;;;;;;;5000029;28;20073;-59
2022/06/25 07:41:12;;;;;;;5.13;2.65;;;;;;;;;;4999862;28;20559;-59
2022/06/25 07:43:37;;;;;;;5.65;3.10;;;;;;;;;;5001889;28;20037;-59
2022/06/25 07:46:04;;;;;;;5.32;2.75;;;;;;;;;;5000525;28;23333;-60
2022/06/25 07:48:29;;;;;;;5.53;1.95;;;;;;;;;;4997604;28;20053;-58
2022/06/25 07:53:39;;;;;;;6.20;2.90;;;;;;;;;;4989056;28;20065;-58
2022/06/25 07:56:05;;;;;;;8.23;2.78;;;;;;;;;;5002433;28;20208;-56
2022/06/25 07:58:31;;;;;;;5.63;2.20;;;;;;;;;;5004027;28;20021;-59
2022/06/25 08:00:56;;;;;;;6.00;2.53;;;;;;;;;;4990416;28;23313;-58
2022/06/25 08:03:22;;;;;;;7.22;2.00;;;;;;;;;;4980093;28;20256;-60
2022/06/25 08:05:47;;;;;;;5.72;2.17;;;;;;;;;;4971080;28;21605;-61
2022/06/25 08:08:13;;;;;;;5.22;2.00;;;;;;;;;;4963281;28;20042;-61
2022/06/25 08:10:39;;;;;;;5.32;2.00;;;;;;;;;;4964140;28;20373;-61
2022/06/25 08:13:05;;;;;;;4.97;2.22;;;;;;;;;;4983380;28;20030;-60
2022/06/25 08:15:30;;;;;;;4.18;1.60;;;;;;;;;;4984939;28;21125;-60
2022/06/25 08:17:56;;;;;;;3.72;1.83;;;;;;;;;;4982853;28;20052;-61
2022/06/25 08:20:21;;;;;;;3.63;1.50;;;;;;;;;;4984169;28;20157;-61
2022/06/25 08:22:46;;;;;;;5.82;1.40;;;;;;;;;;4983215;28;20113;-61
2022/06/25 08:25:12;;;;;;;3.80;1.88;;;;;;;;;;4984116;28;20218;-60
2022/06/25 08:27:45;;;;;;;3.95;2.33;;;;;;;;;;4983090;28;20031;-60
2022/06/25 08:30:10;;;;;;;5.72;1.77;;;;;;;;;;4994156;28;20038;-61
2022/06/25 08:32:36;;;;;;;2.85;1.50;;;;;;;;;;4999691;28;22200;-60
2022/06/25 08:35:01;;;;;;;4.97;1.80;;;;;;;;;;5001702;28;20032;-55
2022/06/25 08:37:27;;;;;;;4.82;1.27;;;;;;;;;;5002453;28;20144;-60
2022/06/25 08:39:52;;;;;;;7.05;1.40;;;;;;;;;;5003744;28;20026;-60
2022/06/25 08:42:17;;;;;;;3.97;1.30;;;;;;;;;;5002991;28;20482;-61
2022/06/25 08:44:43;;;;;;;3.80;1.20;;;;;;;;;;5000809;28;20026;-60
2022/06/25 08:47:09;;;;;;;4.57;1.17;;;;;;;;;;5003656;28;20101;-61
2022/06/25 08:49:35;;;;;;;3.72;1.45;;;;;;;;;;4995303;28;20140;-61
2022/06/25 08:52:01;;;;;;;6.13;2.03;;;;;;;;;;4970155;28;20038;-60
2022/06/25 08:54:26;;;;;;;6.05;1.67;;;;;;;;;;4978873;28;20038;-60
2022/06/25 08:56:52;;;;;;;3.28;1.30;;;;;;;;;;4983765;28;20033;-61
2022/06/25 08:59:17;;;;;;;3.70;1.30;;;;;;;;;;4971823;28;20105;-61
2022/06/25 09:01:43;;;;;;;2.78;1.02;;;;;;;;;;5004158;28;20512;-61
2022/06/25 09:04:09;;;;;;;4.95;1.33;;;;;;;;;;4986910;28;20399;-60
2022/06/25 09:06:34;;;;;;;3.60;1.30;;;;;;;;;;4986357;28;20022;-60
2022/06/25 09:09:13;;;;;;;5.13;1.27;;;;;;;;;;4986485;28;20103;-60
2022/06/25 09:11:53;;;;;;;6.00;1.33;;;;;;;;;;4993653;28;20080;-58
2022/06/25 09:14:25;;;;;;;3.17;1.30;;;;;;;;;;4974095;28;20039;-59
2022/06/25 09:16:58;;;;;;;4.57;1.48;;;;;;;;;;4991290;28;20379;-55
2022/06/25 09:19:31;;;;;;;3.10;1.15;;;;;;;;;;4997675;28;20216;-58
2022/06/25 09:21:58;;;;;;;3.58;1.55;;;;;;;;;;4984813;28;20061;-57
2022/06/25 09:24:23;;;;;;;5.03;1.20;;;;;;;;;;4985667;28;20472;-58
2022/06/25 09:26:52;;;;;;;3.45;1.27;;;;;;;;;;4986200;28;20126;-58
2022/06/25 09:29:17;;;;;;;3.67;1.25;;;;;;;;;;4986797;28;20022;-59
2022/06/25 09:31:42;;;;;;;5.68;1.75;;;;;;;;;;4970533;28;20049;-56
2022/06/25 09:34:08;;;;;;;3.63;1.23;;;;;;;;;;4986016;28;20134;-58
2022/06/25 09:36:33;;;;;;;4.85;1.08;;;;;;;;;;4987430;28;20134;-59
2022/06/25 09:38:59;;;;;;;6.85;1.50;;;;;;;;;;4986011;28;20031;-59
2022/06/25 09:41:25;;;;;;;2.97;0.93;;;;;;;;;;4985887;28;20035;-59
2022/06/25 09:43:51;;;;;;;4.22;1.20;;;;;;;;;;4986427;28;20054;-59
2022/06/25 09:46:16;;;;;;;4.47;1.05;;;;;;;;;;4986750;28;20042;-59
2022/06/25 09:48:42;;;;;;;2.97;1.10;;;;;;;;;;4985668;28;20026;-59
2022/06/25 09:51:14;;;;;;;5.82;1.38;;;;;;;;;;4986450;28;20045;-58
2022/06/25 09:54:00;;;;;;;3.50;1.20;;;;;;;;;;4984681;28;20069;-56
2022/06/25 09:56:29;;;;;;;3.63;1.10;;;;;;;;;;4985855;28;20034;-56
2022/06/25 09:58:55;;;;;;;6.25;1.40;;;;;;;;;;4986272;28;20026;-58
2022/06/25 10:01:28;;;;;;;4.13;1.13;;;;;;;;;;4985557;28;20061;-59
2022/06/25 10:03:53;;;;;;;4.47;1.50;;;;;;;;;;4991682;28;20429;-62
2022/06/25 10:06:20;;;;;;;6.32;1.67;;;;;;;;;;4999413;28;20093;-60
2022/06/25 10:08:55;;;;;;;5.43;1.58;;;;;;;;;;5001871;28;20041;-59
2022/06/25 10:11:22;;;;;;;9.30;1.88;;;;;;;;;;4998262;28;20172;-62
2022/06/25 10:13:48;;;;;;;4.85;1.23;;;;;;;;;;5000713;28;20046;-59
2022/06/25 10:16:16;;;;;;;5.22;1.65;;;;;;;;;;5002295;28;20479;-59
2022/06/25 10:18:41;;;;;;;5.40;1.48;;;;;;;;;;4999386;28;20034;-58
2022/06/25 10:21:07;;;;;;;6.65;1.80;;;;;;;;;;4987136;28;20085;-58
2022/06/25 10:23:32;;;;;;;3.25;1.42;;;;;;;;;;4966866;28;20121;-59
2022/06/25 10:25:58;;;;;;;3.58;1.35;;;;;;;;;;4968241;28;20492;-59
2022/06/25 10:28:25;;;;;;;3.22;1.20;;;;;;;;;;4997289;28;20177;-59
2022/06/25 10:30:52;;;;;;;3.70;1.35;;;;;;;;;;5000601;28;20392;-59
2022/06/25 10:33:20;;;;;;;5.10;1.30;;;;;;;;;;4985375;28;20042;-59
2022/06/25 10:35:46;;;;;;;3.42;1.17;;;;;;;;;;5000071;28;20481;-54
2022/06/25 10:38:16;;;;;;;6.80;1.83;;;;;;;;;;4968238;28;20063;-59
2022/06/25 10:42:58;;;;;;;6.22;1.20;;;;;;;;;;5000937;28;20486;-59
2022/06/25 10:43:50;;;;;;;4.43;1.40;;;;;;;;;;4983481;28;20096;-57
2022/06/25 10:46:28;;;;;;;3.63;1.17;;;;;;;;;;5000794;28;20114;-60
2022/06/25 10:59:37;;;;;;;7.72;1.45;;;;;;;;;;5055709;27;20395;-79
2022/06/25 11:02:06;;;;;;;4.95;1.20;;;;;;;;;;5057067;28;20048;-78
2022/06/25 11:04:32;;;;;;;2.60;1.00;;;;;;;;;;5068224;28;20476;-80
2022/06/25 11:07:14;;;;;;;6.05;1.27;;;;;;;;;;5033526;28;20024;-76
2022/06/25 11:09:40;;;;;;;4.77;1.07;;;;;;;;;;5081332;28;20032;-78
2022/06/25 11:12:06;;;;;;;4.07;0.90;;;;;;;;;;5077548;28;20326;-79
2022/06/25 11:14:31;;;;;;;3.40;1.05;;;;;;;;;;5077309;28;20058;-79
2022/06/25 11:16:57;;;;;;;2.83;0.85;;;;;;;;;;5063570;28;20157;-80
2022/06/25 11:19:22;;;;;;;2.90;0.80;;;;;;;;;;5043763;28;20078;-80
2022/06/25 11:21:48;;;;;;;5.05;1.48;;;;;;;;;;5083883;28;20043;-80
2022/06/25 11:24:24;;;;;;;4.07;1.20;;;;;;;;;;5059556;28;20032;-80
2022/06/25 11:29:52;;;;;;;5.13;1.52;;;;;;;;;;5024737;28;20391;-80
2022/06/25 11:32:25;;;;;;;4.93;1.60;;;;;;;;;;5049039;28;20029;-79
2022/06/25 11:34:56;;;;;;;3.00;1.17;;;;;;;;;;5059899;28;20040;-79
2022/06/25 11:37:22;;;;;;;2.53;1.10;;;;;;;;;;5062069;28;20040;-80
2022/06/25 11:39:47;;;;;;;5.68;1.10;;;;;;;;;;5063079;28;20123;-81
2022/06/25 11:42:13;;;;;;;2.00;1.00;;;;;;;;;;5085866;28;20088;-80
2022/06/25 11:44:46;;;;;;;4.43;0.90;;;;;;;;;;5085077;28;20106;-80
2022/06/25 11:47:17;;;;;;;2.67;0.82;;;;;;;;;;5082913;28;21458;-80
2022/06/25 11:49:43;;;;;;;6.30;0.90;;;;;;;;;;5083952;28;20062;-80
2022/06/25 11:52:09;;;;;;;6.50;1.33;;;;;;;;;;5070440;28;20058;-80
2022/06/25 11:54:36;;;;;;;3.65;1.20;;;;;;;;;;5087014;28;20172;-80
2022/06/25 11:57:03;;;;;;;4.57;1.13;;;;;;;;;;5103612;28;20032;-80
2022/06/25 11:59:30;;;;;;;5.15;1.60;;;;;;;;;;5087566;28;20103;-80
2022/06/25 12:01:55;;;;;;;4.80;1.35;;;;;;;;;;5083477;28;20401;-80
2022/06/25 12:04:21;;;;;;;5.32;1.90;;;;;;;;;;5049130;27;20029;-77
2022/06/25 12:06:47;;;;;;;9.55;1.55;;;;;;;;;;5052132;28;20373;-79
2022/06/25 12:09:16;;;;;;;4.90;1.30;;;;;;;;;;5074481;28;20098;-78
2022/06/25 12:11:51;;;;;;;4.30;1.65;;;;;;;;;;5046018;28;20021;-78
2022/06/25 12:14:26;;;;;;;3.90;1.30;;;;;;;;;;5016415;28;20388;-78
2022/06/25 12:16:51;;;;;;;3.28;1.10;;;;;;;;;;5031079;28;20036;-77
2022/06/25 12:19:17;;;;;;;4.38;1.33;;;;;;;;;;5047177;28;20470;-78
2022/06/25 12:21:43;;;;;;;6.13;1.77;;;;;;;;;;5042880;28;20057;-77
2022/06/25 12:24:12;;;;;;;5.63;1.63;;;;;;;;;;5058238;28;20049;-77
2022/06/25 12:26:41;;;;;;;4.10;1.58;;;;;;;;;;5054022;27;20020;-77
2022/06/25 12:29:13;;;;;;;3.38;1.33;;;;;;;;;;5088936;28;20038;-77
2022/06/25 12:31:49;;;;;;;8.27;1.43;;;;;;;;;;5081603;28;20033;-77
2022/06/25 12:34:15;;;;;;;5.28;1.70;;;;;;;;;;4998934;28;20318;-77
2022/06/25 12:36:40;;;;;;;4.57;1.30;;;;;;;;;;5046855;28;20068;-78
2022/06/25 12:39:27;;;;;;;5.63;1.27;;;;;;;;;;5067721;28;20586;-77
2022/06/25 12:41:52;;;;;;;3.40;1.42;;;;;;;;;;5090186;28;20019;-78
2022/06/25 12:44:19;;;;;;;3.47;1.15;;;;;;;;;;5016898;28;20025;-76
2022/06/25 12:47:00;;;;;;;7.57;1.27;;;;;;;;;;5061467;28;20040;-78
2022/06/25 12:49:26;;;;;;;2.97;1.05;;;;;;;;;;5052621;28;20025;-78
2022/06/25 12:51:51;;;;;;;2.50;1.20;;;;;;;;;;5051864;28;20051;-79
2022/06/25 12:54:17;;;;;;;2.83;0.98;;;;;;;;;;5053758;28;20091;-78
2022/06/25 12:56:42;;;;;;;3.63;0.85;;;;;;;;;;5068986;28;20028;-77
2022/06/25 12:59:08;;;;;;;8.05;1.45;;;;;;;;;;5049094;28;20399;-78
2022/06/25 13:01:33;;;;;;;4.82;1.10;;;;;;;;;;5032011;28;20067;-79
2022/06/25 13:04:00;;;;;;;2.78;0.93;;;;;;;;;;5020609;28;20063;-80
2022/06/25 13:06:26;;;;;;;3.05;1.15;;;;;;;;;;5058379;28;20036;-78
2022/06/25 13:08:51;;;;;;;2.22;1.45;;;;;;;;;;5027719;28;20385;-79
2022/06/25 13:11:20;;;;;;;4.18;0.95;;;;;;;;;;5053606;28;20020;-77
2022/06/25 13:13:46;;;;;;;1.90;0.90;;;;;;;;;;5028921;28;20041;-77
2022/06/25 13:16:12;;;;;;;2.78;1.13;;;;;;;;;;5053107;28;20043;-77
2022/06/25 13:18:38;;;;;;;3.05;1.10;;;;;;;;;;5061338;28;20522;-77
2022/06/25 13:21:04;;;;;;;2.28;0.85;;;;;;;;;;5069530;28;20032;-77
2022/06/25 13:23:29;;;;;;;3.33;0.85;;;;;;;;;;5068118;28;20036;-77
2022/06/25 13:25:54;;;;;;;4.03;1.17;;;;;;;;;;5065039;28;20016;-77
2022/06/25 13:28:20;;;;;;;2.38;1.00;;;;;;;;;;5049448;28;20032;-77
2022/06/25 13:30:45;;;;;;;2.17;0.80;;;;;;;;;;5066536;28;20111;-78
2022/06/25 13:33:10;;;;;;;4.68;0.98;;;;;;;;;;5038188;28;20048;-78
2022/06/25 13:35:36;;;;;;;2.55;1.10;;;;;;;;;;5066716;28;20036;-77
2022/06/25 13:38:02;;;;;;;1.98;0.80;;;;;;;;;;5045297;28;20454;-77
2022/06/25 13:40:28;;;;;;;1.60;0.82;;;;;;;;;;5062974;28;20873;-79
2022/06/25 13:42:53;;;;;;;3.13;0.90;;;;;;;;;;5065193;28;20399;-77
2022/06/25 13:45:19;;;;;;;1.90;0.70;;;;;;;;;;5064291;28;20024;-77
2022/06/25 13:47:44;;;;;;;2.15;0.60;;;;;;;;;;5026857;28;20055;-77
2022/06/25 13:50:10;;;;;;;2.17;0.90;;;;;;;;;;5039774;28;20364;-78
2022/06/25 13:52:35;;;;;;;3.72;0.70;;;;;;;;;;5047378;28;20024;-79
2022/06/25 13:55:01;;;;;;;2.22;0.70;;;;;;;;;;5057824;28;20392;-77
2022/06/25 13:57:26;;;;;;;1.95;0.70;;;;;;;;;;5043218;28;20483;-78
2022/06/25 13:59:53;;;;;;;2.25;0.52;;;;;;;;;;5003197;28;20367;-77
2022/06/25 14:02:19;;;;;;;1.75;0.70;;;;;;;;;;5069883;28;20036;-77
2022/06/25 14:04:45;;;;;;;4.80;0.60;;;;;;;;;;5055167;28;20032;-77
2022/06/25 14:07:10;;;;;;;2.60;0.80;;;;;;;;;;5037409;28;20063;-77
2022/06/25 14:09:35;;;;;;;1.52;0.73;;;;;;;;;;5039618;28;20386;-77
2022/06/25 14:12:01;;;;;;;2.00;0.70;;;;;;;;;;5042928;28;20028;-76
2022/06/25 14:14:30;;;;;;;3.08;0.73;;;;;;;;;;5040571;28;20028;-76
2022/06/25 14:16:55;;;;;;;2.45;0.82;;;;;;;;;;5043005;28;20415;-77
2022/06/25 14:19:20;;;;;;;4.07;0.98;;;;;;;;;;5055880;28;20066;-76
2022/06/25 14:21:46;;;;;;;2.40;0.70;;;;;;;;;;5038075;28;20039;-76
2022/06/25 14:24:11;;;;;;;4.78;0.80;;;;;;;;;;5021905;28;20052;-76
2022/06/25 14:26:37;;;;;;;2.45;0.70;;;;;;;;;;5041215;28;20532;-76
2022/06/25 14:29:02;;;;;;;1.65;0.60;;;;;;;;;;5056599;28;20083;-77
2022/06/25 14:31:29;;;;;;;4.22;0.80;;;;;;;;;;5024632;28;20106;-77
2022/06/25 14:33:54;;;;;;;2.58;0.80;;;;;;;;;;5055532;28;20043;-76
2022/06/25 14:44:31;;;;;;;2.00;0.70;;;;;;;;;;5051317;28;20107;-78
2022/06/25 14:46:57;;;;;;;3.80;0.90;;;;;;;;;;5071796;28;20074;-79
2022/06/25 14:49:22;;;;;;;5.03;0.73;;;;;;;;;;5068046;28;20033;-78
2022/06/25 14:51:48;;;;;;;3.50;0.80;;;;;;;;;;5075625;28;20036;-78
2022/06/25 14:54:13;;;;;;;1.08;0.57;;;;;;;;;;5073517;28;20063;-80
2022/06/25 14:56:39;;;;;;;2.42;0.70;;;;;;;;;;5074822;28;20046;-81
2022/06/25 14:59:04;;;;;;;2.38;0.70;;;;;;;;;;5065487;28;20083;-77
2022/06/25 15:01:30;;;;;;;1.65;0.80;;;;;;;;;;5067538;28;20415;-77
2022/06/25 15:03:55;;;;;;;1.45;0.52;;;;;;;;;;5053723;28;20489;-77
2022/06/25 15:06:20;;;;;;;2.25;0.70;;;;;;;;;;5011404;28;20025;-76